Star Lygra — V7FA7 — position and weather

sailwx.info

Track history (hours):
 
Tides and Currents Weather Stations Pressure Air Temp Water Temp Dewpoint Dewpoint Depression Visibility Wind Speed Wind Dir Waves Ship Positions

Star Lygra

Last reported at 2018-Jun-22 05:41 UTC. Time now 2018-Jun-25 04:32 UTC.
Position S 25°42' W 047°17'.

Length 204 m; draft 9.9 m.

Type: Cargo ship. MMSI: 538005562.

Date/timePositionNaut miles runAvg speedWind from/ knotsBaromVisibWave heightAir tempDewpointWater temp
2018-Jun-22 05:41S 25°42' W 047°17'211.1
2018-Jun-22 05:29S 25°41' W 047°15'511.2
2018-Jun-22 05:00S 25°39' W 047°09'611.5
2018-Jun-22 04:28S 25°36' W 047°03'1411.6
2018-Jun-22 03:18S 25°31' W 046°50'411.4
2018-Jun-22 02:59S 25°29' W 046°46'511.5
2018-Jun-22 02:30S 25°27' W 046°41'611.5
2018-Jun-22 02:00S 25°24' W 046°35'611.5
2018-Jun-22 01:30S 25°21' W 046°29'711.5
2018-Jun-22 00:53S 25°18' W 046°22'411.5
2018-Jun-22 00:30S 25°16' W 046°18'611.5
2018-Jun-22 00:00S 25°14' W 046°12'611.4
2018-Jun-21 23:30S 25°11' W 046°06'1811.4
2018-Jun-21 21:56S 25°03' W 045°49'511.3
2018-Jun-21 21:28S 25°01' W 045°44'511.3
2018-Jun-21 21:00S 24°58' W 045°38'1411.4
2018-Jun-21 19:45S 24°52' W 045°24'1211.4
2018-Jun-21 18:43S 24°47' W 045°13'311.6
2018-Jun-21 18:28S 24°46' W 045°10'  
Track history (hours):
 
Tides and Currents Weather Stations Pressure Air Temp Water Temp Dewpoint Dewpoint Depression Visibility Wind Speed Wind Dir Waves Ship Positions

Star Lygra

Last reported at 2018-Jun-22 05:41 UTC. Time now 2018-Jun-25 04:32 UTC.
Position S 25°42' W 047°17'.

Length 204 m; draft 9.9 m.

Type: Cargo ship. MMSI: 538005562.

Date/timePositionNaut miles runAvg speedWind from/ knotsBaromVisibWave heightAir tempDewpointWater temp
2018-Jun-22 05:41S 25°42' W 047°17'211.1
2018-Jun-22 05:29S 25°41' W 047°15'511.2
2018-Jun-22 05:00S 25°39' W 047°09'611.5
2018-Jun-22 04:28S 25°36' W 047°03'1411.6
2018-Jun-22 03:18S 25°31' W 046°50'411.4
2018-Jun-22 02:59S 25°29' W 046°46'511.5
2018-Jun-22 02:30S 25°27' W 046°41'611.5
2018-Jun-22 02:00S 25°24' W 046°35'611.5
2018-Jun-22 01:30S 25°21' W 046°29'711.5
2018-Jun-22 00:53S 25°18' W 046°22'411.5
2018-Jun-22 00:30S 25°16' W 046°18'611.5
2018-Jun-22 00:00S 25°14' W 046°12'611.4
2018-Jun-21 23:30S 25°11' W 046°06'1811.4
2018-Jun-21 21:56S 25°03' W 045°49'511.3
2018-Jun-21 21:28S 25°01' W 045°44'511.3
2018-Jun-21 21:00S 24°58' W 045°38'1411.4
2018-Jun-21 19:45S 24°52' W 045°24'1211.4
2018-Jun-21 18:43S 24°47' W 045°13'311.6
2018-Jun-21 18:28S 24°46' W 045°10'  

Dump ship's entire track history